sensor_id;sensor_type;location;lat;lon;timestamp;temperature;humidity
20881;DHT22;10600;53.096;8.802;2024-03-22T00:00:24;9.80;99.90
20881;DHT22;10600;53.096;8.802;2024-03-22T00:01:24;9.80;99.90
20881;DHT22;10600;53.096;8.802;2024-03-22T00:02:25;9.80;99.90
20881;DHT22;10600;53.096;8.802;2024-03-22T00:03:26;9.90;99.90
20881;DHT22;10600;53.096;8.802;2024-03-22T00:04:27;9.90;99.90
20881;DHT22;10600;53.096;8.802;2024-03-22T00:05:27;9.80;99.90
20881;DHT22;10600;53.096;8.802;2024-03-22T00:06:28;9.90;99.90
20881;DHT22;10600;53.096;8.802;2024-03-22T00:07:28;9.90;99.90
20881;DHT22;10600;53.096;8.802;2024-03-22T00:08:29;9.90;99.90
20881;DHT22;10600;53.096;8.802;2024-03-22T00:09:29;9.90;99.90
20881;DHT22;10600;53.096;8.802;2024-03-22T00:10:30;9.90;99.90
20881;DHT22;10600;53.096;8.802;2024-03-22T00:11:31;9.90;99.90
20881;DHT22;10600;53.096;8.802;2024-03-22T00:12:31;9.90;99.90
20881;DHT22;10600;53.096;8.802;2024-03-22T00:13:32;9.90;99.90
20881;DHT22;10600;53.096;8.802;2024-03-22T00:14:32;9.90;99.90
20881;DHT22;10600;53.096;8.802;2024-03-22T00:15:33;9.90;99.90
20881;DHT22;10600;53.096;8.802;2024-03-22T00:16:33;9.90;99.90
20881;DHT22;10600;53.096;8.802;2024-03-22T00:17:34;9.90;99.90
20881;DHT22;10600;53.096;8.802;2024-03-22T00:18:34;9.90;99.90
20881;DHT22;10600;53.096;8.802;2024-03-22T00:19:35;9.90;99.90
20881;DHT22;10600;53.096;8.802;2024-03-22T00:20:35;9.90;99.90
20881;DHT22;10600;53.096;8.802;2024-03-22T00:21:36;10.00;99.90
20881;DHT22;10600;53.096;8.802;2024-03-22T00:22:37;10.00;99.90
20881;DHT22;10600;53.096;8.802;2024-03-22T00:23:37;10.00;99.90
20881;DHT22;10600;53.096;8.802;2024-03-22T00:24:38;9.90;99.90
20881;DHT22;10600;53.096;8.802;2024-03-22T00:25:38;10.00;99.90
20881;DHT22;10600;53.096;8.802;2024-03-22T00:26:39;10.00;99.90
20881;DHT22;10600;53.096;8.802;2024-03-22T00:27:39;10.00;99.90
20881;DHT22;10600;53.096;8.802;2024-03-22T00:28:40;10.00;99.90
20881;DHT22;10600;53.096;8.802;2024-03-22T00:29:41;10.00;99.90
20881;DHT22;10600;53.096;8.802;2024-03-22T00:30:41;10.00;99.90
20881;DHT22;10600;53.096;8.802;2024-03-22T00:31:42;10.00;99.90
20881;DHT22;10600;53.096;8.802;2024-03-22T00:32:42;10.00;99.90
20881;DHT22;10600;53.096;8.802;2024-03-22T00:33:44;10.00;99.90
20881;DHT22;10600;53.096;8.802;2024-03-22T00:34:45;10.00;99.90
20881;DHT22;10600;53.096;8.802;2024-03-22T00:35:47;10.00;99.90
20881;DHT22;10600;53.096;8.802;2024-03-22T00:36:48;10.00;99.90
20881;DHT22;10600;53.096;8.802;2024-03-22T00:37:48;10.00;99.90
20881;DHT22;10600;53.096;8.802;2024-03-22T00:38:49;10.00;99.90
20881;DHT22;10600;53.096;8.802;2024-03-22T00:39:49;10.00;99.90
20881;DHT22;10600;53.096;8.802;2024-03-22T00:40:50;10.00;99.90
20881;DHT22;10600;53.096;8.802;2024-03-22T00:41:50;10.00;99.90
20881;DHT22;10600;53.096;8.802;2024-03-22T00:42:51;10.00;99.90
20881;DHT22;10600;53.096;8.802;2024-03-22T00:43:51;10.00;99.90
20881;DHT22;10600;53.096;8.802;2024-03-22T00:44:52;10.00;99.90
20881;DHT22;10600;53.096;8.802;2024-03-22T00:45:52;10.00;99.90
20881;DHT22;10600;53.096;8.802;2024-03-22T00:46:53;10.00;99.90
20881;DHT22;10600;53.096;8.802;2024-03-22T00:47:53;10.00;99.90
20881;DHT22;10600;53.096;8.802;2024-03-22T00:48:54;10.00;99.90
20881;DHT22;10600;53.096;8.802;2024-03-22T00:49:54;10.00;99.90
20881;DHT22;10600;53.096;8.802;2024-03-22T00:50:55;10.10;99.90
20881;DHT22;10600;53.096;8.802;2024-03-22T00:51:56;10.10;99.90
20881;DHT22;10600;53.096;8.802;2024-03-22T00:52:56;10.10;99.90
20881;DHT22;10600;53.096;8.802;2024-03-22T00:53:57;10.10;99.90
20881;DHT22;10600;53.096;8.802;2024-03-22T00:54:57;10.10;99.90
20881;DHT22;10600;53.096;8.802;2024-03-22T00:55:58;10.10;99.90
20881;DHT22;10600;53.096;8.802;2024-03-22T00:56:59;10.10;99.90
20881;DHT22;10600;53.096;8.802;2024-03-22T00:58:00;10.10;99.90
20881;DHT22;10600;53.096;8.802;2024-03-22T00:59:00;10.10;99.90
20881;DHT22;10600;53.096;8.802;2024-03-22T01:00:01;10.10;99.90
20881;DHT22;10600;53.096;8.802;2024-03-22T01:01:01;10.10;99.90
20881;DHT22;10600;53.096;8.802;2024-03-22T01:02:03;10.10;99.90
20881;DHT22;10600;53.096;8.802;2024-03-22T01:03:04;10.10;99.90
20881;DHT22;10600;53.096;8.802;2024-03-22T01:04:04;10.10;99.90
20881;DHT22;10600;53.096;8.802;2024-03-22T01:05:05;10.10;99.90
20881;DHT22;10600;53.096;8.802;2024-03-22T01:06:06;10.10;99.90
20881;DHT22;10600;53.096;8.802;2024-03-22T01:07:07;10.20;99.90
20881;DHT22;10600;53.096;8.802;2024-03-22T01:08:08;10.20;99.90
20881;DHT22;10600;53.096;8.802;2024-03-22T01:09:08;10.20;99.90
20881;DHT22;10600;53.096;8.802;2024-03-22T01:10:10;10.20;99.90
20881;DHT22;10600;53.096;8.802;2024-03-22T01:11:11;10.10;99.90
20881;DHT22;10600;53.096;8.802;2024-03-22T01:12:11;10.20;99.90
20881;DHT22;10600;53.096;8.802;2024-03-22T01:13:12;10.20;99.90
20881;DHT22;10600;53.096;8.802;2024-03-22T01:14:12;10.20;99.90
20881;DHT22;10600;53.096;8.802;2024-03-22T01:15:13;10.20;99.90
20881;DHT22;10600;53.096;8.802;2024-03-22T01:16:13;10.20;99.90
20881;DHT22;10600;53.096;8.802;2024-03-22T01:17:14;10.20;99.90
20881;DHT22;10600;53.096;8.802;2024-03-22T01:18:14;10.20;99.90
20881;DHT22;10600;53.096;8.802;2024-03-22T01:19:15;10.20;99.90
20881;DHT22;10600;53.096;8.802;2024-03-22T01:20:16;10.20;99.90
20881;DHT22;10600;53.096;8.802;2024-03-22T01:21:16;10.20;99.90
20881;DHT22;10600;53.096;8.802;2024-03-22T01:22:17;10.20;99.90
20881;DHT22;10600;53.096;8.802;2024-03-22T01:23:18;10.20;99.90
20881;DHT22;10600;53.096;8.802;2024-03-22T01:24:19;10.20;99.90
20881;DHT22;10600;53.096;8.802;2024-03-22T01:25:19;10.20;99.90
20881;DHT22;10600;53.096;8.802;2024-03-22T01:26:20;10.20;99.90
20881;DHT22;10600;53.096;8.802;2024-03-22T01:27:21;10.20;99.90
20881;DHT22;10600;53.096;8.802;2024-03-22T01:28:21;10.20;99.90
20881;DHT22;10600;53.096;8.802;2024-03-22T01:29:22;10.20;99.90
20881;DHT22;10600;53.096;8.802;2024-03-22T01:30:23;10.20;99.90
20881;DHT22;10600;53.096;8.802;2024-03-22T01:31:23;10.20;99.90
20881;DHT22;10600;53.096;8.802;2024-03-22T01:32:24;10.20;99.90
20881;DHT22;10600;53.096;8.802;2024-03-22T01:33:24;10.20;99.90
20881;DHT22;10600;53.096;8.802;2024-03-22T01:34:25;10.20;99.90
20881;DHT22;10600;53.096;8.802;2024-03-22T01:35:25;10.20;99.90
20881;DHT22;10600;53.096;8.802;2024-03-22T01:36:26;10.20;99.90
20881;DHT22;10600;53.096;8.802;2024-03-22T01:37:27;10.20;99.90
20881;DHT22;10600;53.096;8.802;2024-03-22T01:38:27;10.20;99.90
20881;DHT22;10600;53.096;8.802;2024-03-22T01:39:28;10.20;99.90
20881;DHT22;10600;53.096;8.802;2024-03-22T01:40:28;10.20;99.90
20881;DHT22;10600;53.096;8.802;2024-03-22T01:41:29;10.20;99.90
20881;DHT22;10600;53.096;8.802;2024-03-22T01:42:30;10.20;99.90
20881;DHT22;10600;53.096;8.802;2024-03-22T01:43:30;10.20;99.90
20881;DHT22;10600;53.096;8.802;2024-03-22T01:44:32;10.20;99.90
20881;DHT22;10600;53.096;8.802;2024-03-22T01:45:33;10.20;99.90
20881;DHT22;10600;53.096;8.802;2024-03-22T01:46:34;10.20;99.90
20881;DHT22;10600;53.096;8.802;2024-03-22T01:47:35;10.20;99.90
20881;DHT22;10600;53.096;8.802;2024-03-22T01:48:36;10.20;99.90
20881;DHT22;10600;53.096;8.802;2024-03-22T01:49:37;10.30;99.90
20881;DHT22;10600;53.096;8.802;2024-03-22T01:50:38;10.30;99.90
20881;DHT22;10600;53.096;8.802;2024-03-22T01:51:39;10.20;99.90
20881;DHT22;10600;53.096;8.802;2024-03-22T01:52:40;10.20;99.90
20881;DHT22;10600;53.096;8.802;2024-03-22T01:53:41;10.20;99.90
20881;DHT22;10600;53.096;8.802;2024-03-22T01:54:42;10.30;99.90
20881;DHT22;10600;53.096;8.802;2024-03-22T01:55:43;10.20;99.90
20881;DHT22;10600;53.096;8.802;2024-03-22T01:56:43;10.20;99.90
20881;DHT22;10600;53.096;8.802;2024-03-22T01:57:44;10.20;99.90
20881;DHT22;10600;53.096;8.802;2024-03-22T01:58:45;10.20;99.90
20881;DHT22;10600;53.096;8.802;2024-03-22T01:59:49;10.20;99.90
20881;DHT22;10600;53.096;8.802;2024-03-22T02:00:49;10.20;99.90
20881;DHT22;10600;53.096;8.802;2024-03-22T02:01:50;10.20;99.90
20881;DHT22;10600;53.096;8.802;2024-03-22T02:02:51;10.20;99.90
20881;DHT22;10600;53.096;8.802;2024-03-22T02:03:51;10.20;99.90
20881;DHT22;10600;53.096;8.802;2024-03-22T02:04:52;10.20;99.90
20881;DHT22;10600;53.096;8.802;2024-03-22T02:05:53;10.20;99.90
20881;DHT22;10600;53.096;8.802;2024-03-22T02:06:54;10.20;99.90
20881;DHT22;10600;53.096;8.802;2024-03-22T02:07:54;10.30;99.90
20881;DHT22;10600;53.096;8.802;2024-03-22T02:08:56;10.30;99.90
20881;DHT22;10600;53.096;8.802;2024-03-22T02:09:58;10.30;99.90
20881;DHT22;10600;53.096;8.802;2024-03-22T02:10:58;10.30;99.90
20881;DHT22;10600;53.096;8.802;2024-03-22T02:11:59;10.30;99.90
20881;DHT22;10600;53.096;8.802;2024-03-22T02:12:59;10.30;99.90
20881;DHT22;10600;53.096;8.802;2024-03-22T02:14:00;10.30;99.90
20881;DHT22;10600;53.096;8.802;2024-03-22T02:15:02;10.30;99.90
20881;DHT22;10600;53.096;8.802;2024-03-22T02:16:03;10.20;99.90
20881;DHT22;10600;53.096;8.802;2024-03-22T02:17:04;10.30;99.90
20881;DHT22;10600;53.096;8.802;2024-03-22T02:18:04;10.20;99.90
20881;DHT22;10600;53.096;8.802;2024-03-22T02:19:05;10.30;99.90
20881;DHT22;10600;53.096;8.802;2024-03-22T02:20:06;10.30;99.90
20881;DHT22;10600;53.096;8.802;2024-03-22T02:21:07;10.30;99.90
20881;DHT22;10600;53.096;8.802;2024-03-22T02:22:08;10.30;99.90
20881;DHT22;10600;53.096;8.802;2024-03-22T02:23:08;10.30;99.90
20881;DHT22;10600;53.096;8.802;2024-03-22T02:24:09;10.30;99.90
20881;DHT22;10600;53.096;8.802;2024-03-22T02:25:10;10.30;99.90
20881;DHT22;10600;53.096;8.802;2024-03-22T02:26:13;10.30;99.90
20881;DHT22;10600;53.096;8.802;2024-03-22T02:27:14;10.30;99.90
20881;DHT22;10600;53.096;8.802;2024-03-22T02:28:14;10.30;99.90
20881;DHT22;10600;53.096;8.802;2024-03-22T02:29:15;10.30;99.90
20881;DHT22;10600;53.096;8.802;2024-03-22T02:30:18;10.30;99.90
20881;DHT22;10600;53.096;8.802;2024-03-22T02:31:19;10.30;99.90
20881;DHT22;10600;53.096;8.802;2024-03-22T02:32:20;10.30;99.90
20881;DHT22;10600;53.096;8.802;2024-03-22T02:33:21;10.30;99.90
20881;DHT22;10600;53.096;8.802;2024-03-22T02:34:21;10.30;99.90
20881;DHT22;10600;53.096;8.802;2024-03-22T02:35:22;10.30;99.90
20881;DHT22;10600;53.096;8.802;2024-03-22T02:36:22;10.30;99.90
20881;DHT22;10600;53.096;8.802;2024-03-22T02:37:23;10.30;99.90
20881;DHT22;10600;53.096;8.802;2024-03-22T02:38:23;10.30;99.90
20881;DHT22;10600;53.096;8.802;2024-03-22T02:39:24;10.30;99.90
20881;DHT22;10600;53.096;8.802;2024-03-22T02:40:25;10.30;99.90
20881;DHT22;10600;53.096;8.802;2024-03-22T02:41:26;10.30;99.90
20881;DHT22;10600;53.096;8.802;2024-03-22T02:42:26;10.30;99.90
20881;DHT22;10600;53.096;8.802;2024-03-22T02:43:27;10.30;99.90
20881;DHT22;10600;53.096;8.802;2024-03-22T02:44:27;10.30;99.90
20881;DHT22;10600;53.096;8.802;2024-03-22T02:45:29;10.30;99.90
20881;DHT22;10600;53.096;8.802;2024-03-22T02:46:30;10.30;99.90
20881;DHT22;10600;53.096;8.802;2024-03-22T02:47:31;10.30;99.90
20881;DHT22;10600;53.096;8.802;2024-03-22T02:48:31;10.30;99.90
20881;DHT22;10600;53.096;8.802;2024-03-22T02:49:32;10.30;99.90
20881;DHT22;10600;53.096;8.802;2024-03-22T02:50:34;10.30;99.90
20881;DHT22;10600;53.096;8.802;2024-03-22T02:51:34;10.30;99.90
20881;DHT22;10600;53.096;8.802;2024-03-22T02:52:35;10.30;99.90
20881;DHT22;10600;53.096;8.802;2024-03-22T02:53:35;10.30;99.90
20881;DHT22;10600;53.096;8.802;2024-03-22T02:54:36;10.30;99.90
20881;DHT22;10600;53.096;8.802;2024-03-22T02:55:38;10.30;99.90
20881;DHT22;10600;53.096;8.802;2024-03-22T02:56:39;10.30;99.90
20881;DHT22;10600;53.096;8.802;2024-03-22T02:57:39;10.30;99.90
20881;DHT22;10600;53.096;8.802;2024-03-22T02:58:40;10.40;99.90
20881;DHT22;10600;53.096;8.802;2024-03-22T02:59:40;10.40;99.90
20881;DHT22;10600;53.096;8.802;2024-03-22T03:00:41;10.40;99.90
20881;DHT22;10600;53.096;8.802;2024-03-22T03:01:41;10.40;99.90
20881;DHT22;10600;53.096;8.802;2024-03-22T03:02:42;10.40;99.90
20881;DHT22;10600;53.096;8.802;2024-03-22T03:03:43;10.40;99.90
20881;DHT22;10600;53.096;8.802;2024-03-22T03:04:44;10.40;99.90
20881;DHT22;10600;53.096;8.802;2024-03-22T03:05:44;10.40;99.90
20881;DHT22;10600;53.096;8.802;2024-03-22T03:06:45;10.40;99.90
20881;DHT22;10600;53.096;8.802;2024-03-22T03:07:46;10.40;99.90
20881;DHT22;10600;53.096;8.802;2024-03-22T03:08:47;10.40;99.90
20881;DHT22;10600;53.096;8.802;2024-03-22T03:09:48;10.40;99.90
20881;DHT22;10600;53.096;8.802;2024-03-22T03:10:48;10.40;99.90
20881;DHT22;10600;53.096;8.802;2024-03-22T03:11:49;10.40;99.90
20881;DHT22;10600;53.096;8.802;2024-03-22T03:12:49;10.40;99.90
20881;DHT22;10600;53.096;8.802;2024-03-22T03:13:50;10.40;99.90
20881;DHT22;10600;53.096;8.802;2024-03-22T03:14:50;10.40;99.90
20881;DHT22;10600;53.096;8.802;2024-03-22T03:15:51;10.40;99.90
20881;DHT22;10600;53.096;8.802;2024-03-22T03:16:51;10.40;99.90
20881;DHT22;10600;53.096;8.802;2024-03-22T03:17:52;10.40;99.90
20881;DHT22;10600;53.096;8.802;2024-03-22T03:18:52;10.40;99.90
20881;DHT22;10600;53.096;8.802;2024-03-22T03:19:53;10.40;99.90
20881;DHT22;10600;53.096;8.802;2024-03-22T03:20:53;10.40;99.90
20881;DHT22;10600;53.096;8.802;2024-03-22T03:21:54;10.40;99.90
20881;DHT22;10600;53.096;8.802;2024-03-22T03:22:54;10.40;99.90
20881;DHT22;10600;53.096;8.802;2024-03-22T03:23:55;10.40;99.90
20881;DHT22;10600;53.096;8.802;2024-03-22T03:24:56;10.50;99.90
20881;DHT22;10600;53.096;8.802;2024-03-22T03:25:56;10.50;99.90
20881;DHT22;10600;53.096;8.802;2024-03-22T03:26:57;10.50;99.90
20881;DHT22;10600;53.096;8.802;2024-03-22T03:27:57;10.50;99.90
20881;DHT22;10600;53.096;8.802;2024-03-22T03:28:58;10.50;99.90
20881;DHT22;10600;53.096;8.802;2024-03-22T03:29:59;10.50;99.90
20881;DHT22;10600;53.096;8.802;2024-03-22T03:30:59;10.50;99.90
20881;DHT22;10600;53.096;8.802;2024-03-22T03:32:00;10.50;99.90
20881;DHT22;10600;53.096;8.802;2024-03-22T03:33:00;10.50;99.90
20881;DHT22;10600;53.096;8.802;2024-03-22T03:34:01;10.50;99.90
20881;DHT22;10600;53.096;8.802;2024-03-22T03:35:02;10.50;99.90
20881;DHT22;10600;53.096;8.802;2024-03-22T03:36:02;10.50;99.90
20881;DHT22;10600;53.096;8.802;2024-03-22T03:37:03;10.50;99.90
20881;DHT22;10600;53.096;8.802;2024-03-22T03:38:04;10.50;99.90
20881;DHT22;10600;53.096;8.802;2024-03-22T03:39:04;10.50;99.90
20881;DHT22;10600;53.096;8.802;2024-03-22T03:40:06;10.50;99.90
20881;DHT22;10600;53.096;8.802;2024-03-22T03:41:06;10.50;99.90
20881;DHT22;10600;53.096;8.802;2024-03-22T03:42:07;10.50;99.90
20881;DHT22;10600;53.096;8.802;2024-03-22T03:43:07;10.50;99.90
20881;DHT22;10600;53.096;8.802;2024-03-22T03:44:08;10.50;99.90
20881;DHT22;10600;53.096;8.802;2024-03-22T03:45:09;10.60;99.90
20881;DHT22;10600;53.096;8.802;2024-03-22T03:46:09;10.50;99.90
20881;DHT22;10600;53.096;8.802;2024-03-22T03:47:10;10.60;99.90
20881;DHT22;10600;53.096;8.802;2024-03-22T03:48:10;10.60;99.90
20881;DHT22;10600;53.096;8.802;2024-03-22T03:49:11;10.60;99.90
20881;DHT22;10600;53.096;8.802;2024-03-22T03:50:12;10.60;99.90
20881;DHT22;10600;53.096;8.802;2024-03-22T03:51:12;10.60;99.90
20881;DHT22;10600;53.096;8.802;2024-03-22T03:52:13;10.60;99.90
20881;DHT22;10600;53.096;8.802;2024-03-22T03:53:14;10.60;99.90
20881;DHT22;10600;53.096;8.802;2024-03-22T03:54:14;10.60;99.90
20881;DHT22;10600;53.096;8.802;2024-03-22T03:55:15;10.60;99.90
20881;DHT22;10600;53.096;8.802;2024-03-22T03:56:15;10.60;99.90
20881;DHT22;10600;53.096;8.802;2024-03-22T03:57:16;10.60;99.90
20881;DHT22;10600;53.096;8.802;2024-03-22T03:58:16;10.60;99.90
20881;DHT22;10600;53.096;8.802;2024-03-22T03:59:18;10.60;99.90
20881;DHT22;10600;53.096;8.802;2024-03-22T04:00:20;10.60;99.90
20881;DHT22;10600;53.096;8.802;2024-03-22T04:01:20;10.60;99.90
20881;DHT22;10600;53.096;8.802;2024-03-22T04:02:21;10.60;99.90
20881;DHT22;10600;53.096;8.802;2024-03-22T04:03:23;10.60;99.90
20881;DHT22;10600;53.096;8.802;2024-03-22T04:04:23;10.60;99.90
20881;DHT22;10600;53.096;8.802;2024-03-22T04:05:24;10.60;99.90
20881;DHT22;10600;53.096;8.802;2024-03-22T04:06:24;10.60;99.90
20881;DHT22;10600;53.096;8.802;2024-03-22T04:07:25;10.70;99.90
20881;DHT22;10600;53.096;8.802;2024-03-22T04:08:26;10.70;99.90
20881;DHT22;10600;53.096;8.802;2024-03-22T04:09:26;10.70;99.90
20881;DHT22;10600;53.096;8.802;2024-03-22T04:10:27;10.70;99.90
20881;DHT22;10600;53.096;8.802;2024-03-22T04:11:27;10.70;99.90
20881;DHT22;10600;53.096;8.802;2024-03-22T04:12:28;10.70;99.90
20881;DHT22;10600;53.096;8.802;2024-03-22T04:13:29;10.70;99.90
20881;DHT22;10600;53.096;8.802;2024-03-22T04:14:30;10.70;99.90
20881;DHT22;10600;53.096;8.802;2024-03-22T04:15:34;10.70;99.90
20881;DHT22;10600;53.096;8.802;2024-03-22T04:16:35;10.70;99.90
20881;DHT22;10600;53.096;8.802;2024-03-22T04:17:35;10.70;99.90
20881;DHT22;10600;53.096;8.802;2024-03-22T04:18:36;10.70;99.90
20881;DHT22;10600;53.096;8.802;2024-03-22T04:19:36;10.70;99.90
20881;DHT22;10600;53.096;8.802;2024-03-22T04:20:37;10.70;99.90
20881;DHT22;10600;53.096;8.802;2024-03-22T04:21:37;10.70;99.90
20881;DHT22;10600;53.096;8.802;2024-03-22T04:22:38;10.70;99.90
20881;DHT22;10600;53.096;8.802;2024-03-22T04:23:38;10.70;99.90
20881;DHT22;10600;53.096;8.802;2024-03-22T04:24:39;10.70;99.90
20881;DHT22;10600;53.096;8.802;2024-03-22T04:25:39;10.70;99.90
20881;DHT22;10600;53.096;8.802;2024-03-22T04:26:40;10.70;99.90
20881;DHT22;10600;53.096;8.802;2024-03-22T04:27:40;10.70;99.90
20881;DHT22;10600;53.096;8.802;2024-03-22T04:28:41;10.70;99.90
20881;DHT22;10600;53.096;8.802;2024-03-22T04:29:41;10.70;99.90
20881;DHT22;10600;53.096;8.802;2024-03-22T04:30:42;10.70;99.90
20881;DHT22;10600;53.096;8.802;2024-03-22T04:31:42;10.70;99.90
20881;DHT22;10600;53.096;8.802;2024-03-22T04:32:46;10.70;99.90
20881;DHT22;10600;53.096;8.802;2024-03-22T04:33:46;10.80;99.90
20881;DHT22;10600;53.096;8.802;2024-03-22T04:34:47;10.70;99.90
20881;DHT22;10600;53.096;8.802;2024-03-22T04:35:48;10.70;99.90
20881;DHT22;10600;53.096;8.802;2024-03-22T04:36:48;10.80;99.90
20881;DHT22;10600;53.096;8.802;2024-03-22T04:37:49;10.70;99.90
20881;DHT22;10600;53.096;8.802;2024-03-22T04:38:49;10.80;99.90
20881;DHT22;10600;53.096;8.802;2024-03-22T04:39:50;10.80;99.90
20881;DHT22;10600;53.096;8.802;2024-03-22T04:40:51;10.80;99.90
20881;DHT22;10600;53.096;8.802;2024-03-22T04:41:51;10.80;99.90
20881;DHT22;10600;53.096;8.802;2024-03-22T04:42:52;10.80;99.90
20881;DHT22;10600;53.096;8.802;2024-03-22T04:43:52;10.80;99.90
20881;DHT22;10600;53.096;8.802;2024-03-22T04:44:53;10.80;99.90
20881;DHT22;10600;53.096;8.802;2024-03-22T04:45:53;10.80;99.90
20881;DHT22;10600;53.096;8.802;2024-03-22T04:46:54;10.80;99.90
20881;DHT22;10600;53.096;8.802;2024-03-22T04:47:54;10.80;99.90
20881;DHT22;10600;53.096;8.802;2024-03-22T04:48:55;10.80;99.90
20881;DHT22;10600;53.096;8.802;2024-03-22T04:49:55;10.80;99.90
20881;DHT22;10600;53.096;8.802;2024-03-22T04:50:56;10.80;99.90
20881;DHT22;10600;53.096;8.802;2024-03-22T04:51:56;10.80;99.90
20881;DHT22;10600;53.096;8.802;2024-03-22T04:52:57;10.80;99.90
20881;DHT22;10600;53.096;8.802;2024-03-22T04:53:58;10.80;99.90
20881;DHT22;10600;53.096;8.802;2024-03-22T04:54:58;10.80;99.90
20881;DHT22;10600;53.096;8.802;2024-03-22T04:55:59;10.80;99.90
20881;DHT22;10600;53.096;8.802;2024-03-22T04:56:59;10.80;99.90
20881;DHT22;10600;53.096;8.802;2024-03-22T04:58:00;10.80;99.90
20881;DHT22;10600;53.096;8.802;2024-03-22T04:59:00;10.80;99.90
20881;DHT22;10600;53.096;8.802;2024-03-22T05:00:01;10.80;99.90
20881;DHT22;10600;53.096;8.802;2024-03-22T05:01:01;10.80;99.90
20881;DHT22;10600;53.096;8.802;2024-03-22T05:02:02;10.80;99.90
20881;DHT22;10600;53.096;8.802;2024-03-22T05:03:02;10.80;99.90
20881;DHT22;10600;53.096;8.802;2024-03-22T05:04:03;10.80;99.90
20881;DHT22;10600;53.096;8.802;2024-03-22T05:05:04;10.80;99.90
20881;DHT22;10600;53.096;8.802;2024-03-22T05:06:05;10.80;99.90
20881;DHT22;10600;53.096;8.802;2024-03-22T05:07:06;10.80;99.90
20881;DHT22;10600;53.096;8.802;2024-03-22T05:08:07;10.80;99.90
20881;DHT22;10600;53.096;8.802;2024-03-22T05:09:08;10.80;99.90
20881;DHT22;10600;53.096;8.802;2024-03-22T05:10:10;10.90;99.90
20881;DHT22;10600;53.096;8.802;2024-03-22T05:11:11;10.80;99.90
20881;DHT22;10600;53.096;8.802;2024-03-22T05:12:11;10.90;99.90
20881;DHT22;10600;53.096;8.802;2024-03-22T05:13:12;10.90;99.90
20881;DHT22;10600;53.096;8.802;2024-03-22T05:14:12;10.90;99.90
20881;DHT22;10600;53.096;8.802;2024-03-22T05:15:13;10.90;99.90
20881;DHT22;10600;53.096;8.802;2024-03-22T05:16:13;10.90;99.90
20881;DHT22;10600;53.096;8.802;2024-03-22T05:17:14;10.90;99.90
20881;DHT22;10600;53.096;8.802;2024-03-22T05:18:15;10.90;99.90
20881;DHT22;10600;53.096;8.802;2024-03-22T05:19:15;10.90;99.90
20881;DHT22;10600;53.096;8.802;2024-03-22T05:20:16;10.90;99.90
20881;DHT22;10600;53.096;8.802;2024-03-22T05:21:16;10.90;99.90
20881;DHT22;10600;53.096;8.802;2024-03-22T05:22:17;10.90;99.90
20881;DHT22;10600;53.096;8.802;2024-03-22T05:23:20;10.90;99.90
20881;DHT22;10600;53.096;8.802;2024-03-22T05:24:20;10.90;99.90
20881;DHT22;10600;53.096;8.802;2024-03-22T05:25:21;10.90;99.90
20881;DHT22;10600;53.096;8.802;2024-03-22T05:26:21;10.90;99.90
20881;DHT22;10600;53.096;8.802;2024-03-22T05:27:23;10.90;99.90
20881;DHT22;10600;53.096;8.802;2024-03-22T05:28:23;10.90;99.90
20881;DHT22;10600;53.096;8.802;2024-03-22T05:29:24;10.90;99.90
20881;DHT22;10600;53.096;8.802;2024-03-22T05:30:24;10.90;99.90
20881;DHT22;10600;53.096;8.802;2024-03-22T05:31:25;11.00;99.90
20881;DHT22;10600;53.096;8.802;2024-03-22T05:32:31;11.00;99.90
20881;DHT22;10600;53.096;8.802;2024-03-22T05:33:31;11.00;99.90
20881;DHT22;10600;53.096;8.802;2024-03-22T05:34:32;10.90;99.90
20881;DHT22;10600;53.096;8.802;2024-03-22T05:35:33;11.00;99.90
20881;DHT22;10600;53.096;8.802;2024-03-22T05:36:33;11.00;99.90
20881;DHT22;10600;53.096;8.802;2024-03-22T05:37:34;10.90;99.90
20881;DHT22;10600;53.096;8.802;2024-03-22T05:38:34;11.00;99.90
20881;DHT22;10600;53.096;8.802;2024-03-22T05:39:35;11.00;99.90
20881;DHT22;10600;53.096;8.802;2024-03-22T05:40:38;11.00;99.90
20881;DHT22;10600;53.096;8.802;2024-03-22T05:41:39;11.00;99.90
20881;DHT22;10600;53.096;8.802;2024-03-22T05:42:39;11.00;99.90
20881;DHT22;10600;53.096;8.802;2024-03-22T05:43:40;11.00;99.90
20881;DHT22;10600;53.096;8.802;2024-03-22T05:44:40;11.00;99.90
20881;DHT22;10600;53.096;8.802;2024-03-22T05:45:41;11.00;99.90
20881;DHT22;10600;53.096;8.802;2024-03-22T05:46:41;11.00;99.90
20881;DHT22;10600;53.096;8.802;2024-03-22T05:47:42;11.00;99.90
20881;DHT22;10600;53.096;8.802;2024-03-22T05:48:42;11.00;99.90
20881;DHT22;10600;53.096;8.802;2024-03-22T05:49:43;11.00;99.90
20881;DHT22;10600;53.096;8.802;2024-03-22T05:50:43;11.00;99.90
20881;DHT22;10600;53.096;8.802;2024-03-22T05:51:44;11.00;99.90
20881;DHT22;10600;53.096;8.802;2024-03-22T05:52:45;11.00;99.90
20881;DHT22;10600;53.096;8.802;2024-03-22T05:53:45;11.00;99.90
20881;DHT22;10600;53.096;8.802;2024-03-22T05:54:46;11.00;99.90
20881;DHT22;10600;53.096;8.802;2024-03-22T05:55:47;11.00;99.90
20881;DHT22;10600;53.096;8.802;2024-03-22T05:56:47;11.00;99.90
20881;DHT22;10600;53.096;8.802;2024-03-22T05:57:49;11.10;99.90
20881;DHT22;10600;53.096;8.802;2024-03-22T05:58:49;11.10;99.90
20881;DHT22;10600;53.096;8.802;2024-03-22T05:59:50;11.10;99.90
20881;DHT22;10600;53.096;8.802;2024-03-22T06:00:51;11.10;99.90
20881;DHT22;10600;53.096;8.802;2024-03-22T06:01:53;11.10;99.90
20881;DHT22;10600;53.096;8.802;2024-03-22T06:02:54;11.10;99.90
20881;DHT22;10600;53.096;8.802;2024-03-22T06:03:54;11.10;99.90
20881;DHT22;10600;53.096;8.802;2024-03-22T06:04:55;11.10;99.90
20881;DHT22;10600;53.096;8.802;2024-03-22T06:05:55;11.10;99.90
20881;DHT22;10600;53.096;8.802;2024-03-22T06:07:00;11.10;99.90
20881;DHT22;10600;53.096;8.802;2024-03-22T06:08:03;11.10;99.90
20881;DHT22;10600;53.096;8.802;2024-03-22T06:09:04;11.10;99.90
20881;DHT22;10600;53.096;8.802;2024-03-22T06:10:09;11.20;99.90
20881;DHT22;10600;53.096;8.802;2024-03-22T06:11:12;11.20;99.90
20881;DHT22;10600;53.096;8.802;2024-03-22T06:12:13;11.20;99.90
20881;DHT22;10600;53.096;8.802;2024-03-22T06:13:14;11.20;99.90
20881;DHT22;10600;53.096;8.802;2024-03-22T06:14:14;11.20;99.90
20881;DHT22;10600;53.096;8.802;2024-03-22T06:15:15;11.20;99.90
20881;DHT22;10600;53.096;8.802;2024-03-22T06:16:15;11.20;99.90
20881;DHT22;10600;53.096;8.802;2024-03-22T06:17:16;11.20;99.90
20881;DHT22;10600;53.096;8.802;2024-03-22T06:18:17;11.30;99.90
20881;DHT22;10600;53.096;8.802;2024-03-22T06:19:17;11.30;99.90
20881;DHT22;10600;53.096;8.802;2024-03-22T06:20:18;11.30;99.90
20881;DHT22;10600;53.096;8.802;2024-03-22T06:21:19;11.30;99.90
20881;DHT22;10600;53.096;8.802;2024-03-22T06:22:25;11.30;99.90
20881;DHT22;10600;53.096;8.802;2024-03-22T06:23:25;11.30;99.90
20881;DHT22;10600;53.096;8.802;2024-03-22T06:24:26;11.30;99.90